createdAt,value
2022-12-17T00:02:42.013Z,43.07
2022-12-17T00:05:28.046Z,41.93
2022-12-17T00:08:17.583Z,42.17
2022-12-17T00:11:03.660Z,40.07
2022-12-17T00:13:51.393Z,40.57
2022-12-17T00:16:37.112Z,41.20
2022-12-17T00:19:22.564Z,42.33
2022-12-17T00:22:08.171Z,40.10
2022-12-17T00:24:53.777Z,41.37
2022-12-17T00:27:52.448Z,42.53
2022-12-17T00:30:38.080Z,40.77
2022-12-17T00:33:25.274Z,41.20
2022-12-17T00:36:14.420Z,39.33
2022-12-17T00:38:59.789Z,37.40
2022-12-17T00:41:45.166Z,40.67
2022-12-17T00:44:30.515Z,41.27
2022-12-17T00:47:16.054Z,39.80
2022-12-17T00:50:02.889Z,42.30
2022-12-17T00:52:48.435Z,41.13
2022-12-17T00:55:33.910Z,38.07
2022-12-17T00:58:19.629Z,44.63
2022-12-17T01:01:05.181Z,38.40
2022-12-17T01:03:50.670Z,39.80
2022-12-17T01:06:36.360Z,37.63
2022-12-17T01:09:21.936Z,36.90
2022-12-17T01:12:11.848Z,37.23
2022-12-17T01:14:58.273Z,39.33
2022-12-17T01:17:43.972Z,39.80
2022-12-17T01:20:29.216Z,39.27
2022-12-17T01:23:14.676Z,38.77
2022-12-17T01:26:00.017Z,34.47
2022-12-17T01:28:45.927Z,39.87
2022-12-17T01:31:34.886Z,38.17
2022-12-17T01:34:21.082Z,39.37
2022-12-17T01:37:06.427Z,39.23
2022-12-17T01:39:51.792Z,39.53
2022-12-17T01:42:37.381Z,38.07
2022-12-17T01:45:23.687Z,35.67
2022-12-17T01:48:21.426Z,34.00
2022-12-17T01:51:13.394Z,35.53
2022-12-17T01:54:08.578Z,34.80
2022-12-17T01:56:56.392Z,33.20
2022-12-17T01:59:49.788Z,33.10
2022-12-17T02:02:35.106Z,29.60
2022-12-17T02:05:20.989Z,30.00
2022-12-17T02:08:32.884Z,31.00
2022-12-17T02:11:44.165Z,29.03
2022-12-17T02:15:13.084Z,31.00
2022-12-17T02:18:07.908Z,29.50
2022-12-17T02:20:57.320Z,29.13
2022-12-17T02:24:11.387Z,29.47
2022-12-17T02:26:59.891Z,29.53
2022-12-17T02:29:48.650Z,31.00
2022-12-17T02:32:35.315Z,32.33
2022-12-17T02:35:25.651Z,30.17
2022-12-17T02:38:11.419Z,31.10
2022-12-17T02:40:57.976Z,31.13
2022-12-17T02:43:44.271Z,30.53
2022-12-17T02:46:30.536Z,29.70
2022-12-17T02:49:15.980Z,31.33
2022-12-17T02:52:01.997Z,27.50
2022-12-17T02:54:51.646Z,29.17
2022-12-17T02:57:42.230Z,27.30
2022-12-17T03:00:29.901Z,26.53
2022-12-17T03:03:15.337Z,27.63
2022-12-17T03:06:00.595Z,28.23
2022-12-17T03:08:46.263Z,30.27
2022-12-17T03:11:45.442Z,28.57
2022-12-17T03:14:30.856Z,27.60
2022-12-17T03:17:16.953Z,28.77
2022-12-17T03:20:02.527Z,26.70
2022-12-17T03:22:47.716Z,29.77
2022-12-17T03:25:33.362Z,29.17
2022-12-17T03:28:29.678Z,29.27
2022-12-17T03:31:19.698Z,27.40
2022-12-17T03:34:05.341Z,30.83
2022-12-17T03:36:51.120Z,27.13
2022-12-17T03:39:36.558Z,27.50
2022-12-17T03:42:22.016Z,28.43
2022-12-17T03:45:07.298Z,26.80
2022-12-17T03:47:52.766Z,29.73
2022-12-17T03:50:38.347Z,28.57
2022-12-17T03:53:24.266Z,26.17
2022-12-17T03:56:10.046Z,27.00
2022-12-17T03:58:55.408Z,28.43
2022-12-17T04:01:40.944Z,28.07
2022-12-17T04:04:26.152Z,27.90
2022-12-17T04:07:11.798Z,29.03
2022-12-17T04:09:56.975Z,26.13
2022-12-17T04:12:42.621Z,26.53
2022-12-17T04:15:28.481Z,28.23
2022-12-17T04:18:14.244Z,28.13
2022-12-17T04:20:59.631Z,28.97
2022-12-17T04:23:45.170Z,28.53
2022-12-17T04:26:30.787Z,26.70
2022-12-17T04:29:16.459Z,28.70
2022-12-17T04:32:01.715Z,25.77
2022-12-17T04:34:47.392Z,25.57
2022-12-17T04:37:33.864Z,25.83
2022-12-17T04:40:19.528Z,26.30
2022-12-17T04:43:04.940Z,26.93
2022-12-17T04:45:50.634Z,25.00
2022-12-17T04:48:36.534Z,28.50
2022-12-17T04:51:21.912Z,24.50
2022-12-17T04:54:07.520Z,24.53
2022-12-17T04:56:52.995Z,23.13
2022-12-17T04:59:38.195Z,24.43
2022-12-17T05:02:24.068Z,24.73
2022-12-17T05:05:10.032Z,23.80
2022-12-17T05:07:55.114Z,23.17
2022-12-17T05:10:40.429Z,24.30
2022-12-17T05:13:28.118Z,23.33
2022-12-17T05:16:16.947Z,23.53
2022-12-17T05:19:02.308Z,21.40
2022-12-17T05:21:47.913Z,23.13
2022-12-17T05:24:33.574Z,23.20
2022-12-17T05:27:19.250Z,23.00
2022-12-17T05:30:04.788Z,24.17
2022-12-17T05:32:50.337Z,22.93
2022-12-17T05:35:35.708Z,24.10
2022-12-17T05:38:26.702Z,23.93
2022-12-17T05:41:15.739Z,23.63
2022-12-17T05:44:01.144Z,23.03
2022-12-17T05:46:47.323Z,24.57
2022-12-17T05:49:33.127Z,25.17
2022-12-17T05:52:19.471Z,24.63
2022-12-17T05:55:04.667Z,23.60
2022-12-17T05:57:56.581Z,24.47
2022-12-17T06:00:42.313Z,22.87
2022-12-17T06:03:27.872Z,23.47
2022-12-17T06:06:14.938Z,22.73
2022-12-17T06:09:00.679Z,24.53
2022-12-17T06:11:46.177Z,23.13
2022-12-17T06:14:31.400Z,23.90
2022-12-17T06:17:17.015Z,24.43
2022-12-17T06:20:02.298Z,23.47
2022-12-17T06:22:48.127Z,22.43
2022-12-17T06:25:33.316Z,22.63
2022-12-17T06:28:20.227Z,23.30
2022-12-17T06:31:12.718Z,23.33
2022-12-17T06:33:58.651Z,22.80
2022-12-17T06:36:44.026Z,24.27
2022-12-17T06:39:29.513Z,23.40
2022-12-17T06:42:14.898Z,22.57
2022-12-17T06:45:00.573Z,25.40
2022-12-17T06:47:45.910Z,24.77
2022-12-17T06:50:31.594Z,25.00
2022-12-17T06:53:26.219Z,24.87
2022-12-17T06:56:11.504Z,24.83
2022-12-17T06:58:57.127Z,26.00
2022-12-17T07:01:42.632Z,24.43
2022-12-17T07:04:28.121Z,26.07
2022-12-17T07:07:13.436Z,24.07
2022-12-17T07:09:59.416Z,26.77
2022-12-17T07:12:44.829Z,23.83
2022-12-17T07:15:30.133Z,24.27
2022-12-17T07:18:17.451Z,25.07
2022-12-17T07:21:02.750Z,24.03
2022-12-17T07:23:48.342Z,25.57
2022-12-17T07:26:34.261Z,24.47
2022-12-17T07:29:19.843Z,22.03
2022-12-17T07:32:05.270Z,21.77
2022-12-17T07:34:50.585Z,25.70
2022-12-17T07:37:37.001Z,22.00
2022-12-17T07:40:24.645Z,22.67
2022-12-17T07:43:10.006Z,23.77
2022-12-17T07:45:59.909Z,23.57
2022-12-17T07:48:45.478Z,23.33
2022-12-17T07:51:31.037Z,22.87
2022-12-17T07:54:16.403Z,21.57
2022-12-17T07:57:02.024Z,20.10
2022-12-17T07:59:47.247Z,20.93
2022-12-17T08:02:32.781Z,21.20
2022-12-17T08:05:18.446Z,21.30
2022-12-17T08:08:05.450Z,20.10
2022-12-17T08:10:50.796Z,23.85
2022-12-17T08:13:36.688Z,23.00
2022-12-17T08:16:22.050Z,23.07
2022-12-17T08:19:07.551Z,21.13
2022-12-17T08:21:52.809Z,20.73
2022-12-17T08:24:38.630Z,20.93
2022-12-17T08:27:24.294Z,21.17
2022-12-17T08:30:09.732Z,21.57
2022-12-17T08:32:54.995Z,25.60
2022-12-17T08:35:40.482Z,20.37
2022-12-17T08:38:25.932Z,20.20
2022-12-17T08:41:11.348Z,20.50
2022-12-17T08:43:56.787Z,21.67
2022-12-17T08:46:42.329Z,21.83
2022-12-17T08:49:27.859Z,19.63
2022-12-17T08:52:13.126Z,19.30
2022-12-17T08:54:58.847Z,22.53
2022-12-17T08:57:44.355Z,19.70
2022-12-17T09:00:30.139Z,19.70
2022-12-17T09:03:20.794Z,18.80
2022-12-17T09:06:06.465Z,18.90
2022-12-17T09:08:51.777Z,19.60
2022-12-17T09:11:37.122Z,18.17
2022-12-17T09:14:22.846Z,20.23
2022-12-17T09:17:08.161Z,21.73
2022-12-17T09:19:53.897Z,20.80
2022-12-17T09:22:42.228Z,19.03
2022-12-17T09:25:27.904Z,20.73
2022-12-17T09:28:13.521Z,18.37
2022-12-17T09:30:58.625Z,18.40
2022-12-17T09:33:44.259Z,18.17
2022-12-17T09:36:29.844Z,18.30
2022-12-17T09:39:14.995Z,19.87
2022-12-17T09:42:11.265Z,21.13
2022-12-17T09:44:59.550Z,20.23
2022-12-17T09:48:00.597Z,18.30
2022-12-17T09:50:45.894Z,19.17
2022-12-17T09:54:10.157Z,16.57
2022-12-17T09:56:58.969Z,17.23
2022-12-17T09:59:53.282Z,18.00
2022-12-17T10:02:51.899Z,17.93
2022-12-17T10:05:52.364Z,17.67
2022-12-17T10:08:40.274Z,18.37
2022-12-17T10:11:37.625Z,18.37
2022-12-17T10:14:33.970Z,18.10
2022-12-17T10:17:21.389Z,15.47
2022-12-17T10:20:10.087Z,15.97
2022-12-17T10:23:08.260Z,17.10
2022-12-17T10:25:55.130Z,17.30
2022-12-17T10:28:43.234Z,19.27
2022-12-17T10:31:36.699Z,17.63
2022-12-17T10:34:26.088Z,16.43
2022-12-17T10:37:12.951Z,17.10
2022-12-17T10:40:00.621Z,16.73
2022-12-17T10:42:56.952Z,15.30
2022-12-17T10:45:51.612Z,18.07
2022-12-17T10:48:44.380Z,18.60
2022-12-17T10:51:54.408Z,17.33
2022-12-17T10:54:51.040Z,20.10
2022-12-17T10:57:43.620Z,20.73
2022-12-17T11:00:50.226Z,19.13
2022-12-17T11:03:42.827Z,19.17
2022-12-17T11:06:29.504Z,18.53
2022-12-17T11:09:15.898Z,18.60
2022-12-17T11:12:07.115Z,19.13
2022-12-17T11:15:02.481Z,20.20
2022-12-17T11:17:48.248Z,16.00
2022-12-17T11:20:48.452Z,17.50
2022-12-17T11:23:38.263Z,17.07
2022-12-17T11:26:31.161Z,17.27
2022-12-17T11:29:18.323Z,19.97
2022-12-17T11:32:29.649Z,19.77
2022-12-17T11:35:28.046Z,18.80
2022-12-17T11:38:22.868Z,23.37
2022-12-17T11:41:17.832Z,19.43
2022-12-17T11:44:21.254Z,20.60
2022-12-17T11:47:12.669Z,20.20
2022-12-17T11:50:29.183Z,19.50
2022-12-17T11:53:27.530Z,19.73
2022-12-17T11:56:25.940Z,18.73
2022-12-17T11:59:37.544Z,19.07
2022-12-17T12:02:32.070Z,18.97
2022-12-17T12:05:24.784Z,20.83
2022-12-17T12:08:41.668Z,20.03
2022-12-17T12:12:05.099Z,20.00
2022-12-17T12:15:09.880Z,21.47
2022-12-17T12:18:07.130Z,21.10
2022-12-17T12:21:25.045Z,19.40
2022-12-17T12:24:22.298Z,21.07
2022-12-17T12:27:39.132Z,19.27
2022-12-17T12:30:36.723Z,18.83
2022-12-17T12:33:27.994Z,20.53
2022-12-17T12:36:20.127Z,22.33
2022-12-17T12:39:08.884Z,21.37
2022-12-17T12:41:56.923Z,23.70
2022-12-17T12:45:12.485Z,21.63
2022-12-17T12:48:40.007Z,19.90
2022-12-17T12:51:37.714Z,20.97
2022-12-17T12:54:40.453Z,19.67
2022-12-17T12:57:54.526Z,19.80
2022-12-17T13:00:42.497Z,21.90
2022-12-17T13:03:56.106Z,21.10
2022-12-17T13:06:54.454Z,21.87
2022-12-17T13:09:35.005Z,21.17
2022-12-17T13:12:02.305Z,21.77
2022-12-17T13:14:36.738Z,21.33
2022-12-17T13:17:22.087Z,23.63
2022-12-17T13:19:58.003Z,22.67
2022-12-17T13:22:29.571Z,20.70
2022-12-17T13:25:21.468Z,22.07
2022-12-17T13:27:49.451Z,21.00
2022-12-17T13:30:22.062Z,21.57
2022-12-17T13:33:15.416Z,22.10
2022-12-17T13:36:19.876Z,22.10
2022-12-17T13:39:10.709Z,21.53
2022-12-17T13:41:38.878Z,22.57
2022-12-17T13:44:27.380Z,21.63
2022-12-17T13:46:55.313Z,22.50
2022-12-17T13:49:27.292Z,22.20
2022-12-17T13:52:20.443Z,23.40
2022-12-17T13:54:47.370Z,22.27
2022-12-17T13:57:17.764Z,23.50
2022-12-17T13:59:57.323Z,22.13
2022-12-17T14:02:29.038Z,24.70
2022-12-17T14:05:00.674Z,23.87
2022-12-17T14:07:30.827Z,21.87
2022-12-17T14:09:57.754Z,22.43
2022-12-17T14:12:27.512Z,22.57
2022-12-17T14:14:58.516Z,22.77
2022-12-17T14:17:35.636Z,22.80
2022-12-17T14:20:13.278Z,24.73
2022-12-17T14:22:49.397Z,23.37
2022-12-17T14:25:23.670Z,23.90
2022-12-17T14:27:54.814Z,24.40
2022-12-17T14:31:17.331Z,23.17
2022-12-17T14:33:34.642Z,22.77
2022-12-17T14:36:09.131Z,23.17
2022-12-17T14:38:38.934Z,23.60
2022-12-17T14:41:31.147Z,23.80
2022-12-17T14:44:00.202Z,26.43
2022-12-17T14:46:30.600Z,23.70
2022-12-17T14:49:01.659Z,22.47
2022-12-17T14:51:42.528Z,22.93
2022-12-17T14:54:22.229Z,23.57
2022-12-17T14:56:54.429Z,21.27
2022-12-17T14:59:30.243Z,20.83
2022-12-17T15:01:57.751Z,21.07
2022-12-17T15:04:24.688Z,21.40
2022-12-17T15:06:55.239Z,20.57
2022-12-17T15:09:22.302Z,21.87
2022-12-17T15:11:49.496Z,21.33
2022-12-17T15:14:16.783Z,21.70
2022-12-17T15:16:48.744Z,25.83
2022-12-17T15:19:16.083Z,23.03
2022-12-17T15:21:42.973Z,23.87
2022-12-17T15:24:17.499Z,21.00
2022-12-17T15:26:44.666Z,21.93
2022-12-17T15:29:11.759Z,22.10
2022-12-17T15:31:41.963Z,22.37
2022-12-17T15:34:11.772Z,22.60
2022-12-17T15:36:38.686Z,23.03
2022-12-17T15:39:07.133Z,24.23
2022-12-17T15:41:52.915Z,23.63
2022-12-17T15:44:23.334Z,23.43
2022-12-17T15:46:51.986Z,23.40
2022-12-17T15:49:18.789Z,23.23
2022-12-17T15:51:45.591Z,23.93
2022-12-17T15:54:12.377Z,24.37
2022-12-17T15:56:39.373Z,22.73
2022-12-17T15:59:06.781Z,23.80
2022-12-17T16:01:34.190Z,24.00
2022-12-17T16:04:01.149Z,24.20
2022-12-17T16:06:28.169Z,24.30
2022-12-17T16:08:55.419Z,24.40
2022-12-17T16:11:22.266Z,24.73
2022-12-17T16:13:55.031Z,24.03
2022-12-17T16:16:22.854Z,24.43
2022-12-17T16:18:53.145Z,22.63
2022-12-17T16:21:20.540Z,22.87
2022-12-17T16:23:47.420Z,24.10
2022-12-17T16:26:17.887Z,24.27
2022-12-17T16:28:45.180Z,25.10
2022-12-17T16:31:14.565Z,23.73
2022-12-17T16:33:43.535Z,24.67
2022-12-17T16:36:13.640Z,22.83
2022-12-17T16:38:46.236Z,23.77
2022-12-17T16:41:14.287Z,22.53
2022-12-17T16:43:41.766Z,22.07
2022-12-17T16:46:33.191Z,22.90
2022-12-17T16:49:05.951Z,24.80
2022-12-17T16:51:32.871Z,22.67
2022-12-17T16:54:03.720Z,22.30
2022-12-17T16:56:35.055Z,23.37
2022-12-17T16:59:07.853Z,24.03
2022-12-17T17:01:35.972Z,24.50
2022-12-17T17:04:04.695Z,24.10
2022-12-17T17:06:33.876Z,23.83
2022-12-17T17:09:04.355Z,24.73
2022-12-17T17:11:31.314Z,24.80
2022-12-17T17:13:58.414Z,23.63
2022-12-17T17:16:26.055Z,23.90
2022-12-17T17:18:53.517Z,22.43
2022-12-17T17:21:23.311Z,24.53
2022-12-17T17:23:59.822Z,23.53
2022-12-17T17:26:28.384Z,23.90
2022-12-17T17:28:55.985Z,22.97
2022-12-17T17:31:26.656Z,24.63
2022-12-17T17:33:57.754Z,25.63
2022-12-17T17:36:26.583Z,23.47
2022-12-17T17:38:58.306Z,23.73
2022-12-17T17:41:27.282Z,23.37
2022-12-17T17:44:02.756Z,20.97
2022-12-17T17:46:31.217Z,22.33
2022-12-17T17:49:00.379Z,22.70
2022-12-17T17:52:07.222Z,23.50
2022-12-17T17:54:17.215Z,21.40
2022-12-17T17:56:44.461Z,22.77
2022-12-17T17:59:20.314Z,21.67
2022-12-17T18:01:51.749Z,24.60
2022-12-17T18:04:24.308Z,21.90
2022-12-17T18:07:23.774Z,21.97
2022-12-17T18:09:40.700Z,22.33
2022-12-17T18:12:26.150Z,23.27
2022-12-17T18:15:13.147Z,21.60
2022-12-17T18:17:39.981Z,21.87
2022-12-17T18:20:07.575Z,21.73
2022-12-17T18:22:34.432Z,21.17
2022-12-17T18:25:01.311Z,22.53
2022-12-17T18:27:28.097Z,19.33
2022-12-17T18:29:54.953Z,21.37
2022-12-17T18:32:21.790Z,22.13
2022-12-17T18:34:48.599Z,21.17
2022-12-17T18:37:15.398Z,21.50
2022-12-17T18:39:42.495Z,21.07
2022-12-17T18:42:27.929Z,21.57
2022-12-17T18:44:54.778Z,21.03
2022-12-17T18:47:21.691Z,19.30
2022-12-17T18:49:48.645Z,18.53
2022-12-17T18:52:17.264Z,20.07
2022-12-17T18:54:44.823Z,20.43
2022-12-17T18:57:11.685Z,19.43
2022-12-17T18:59:40.643Z,19.73
2022-12-17T19:02:13.657Z,19.43
2022-12-17T19:04:46.197Z,19.63
2022-12-17T19:07:13.082Z,19.27
2022-12-17T19:09:40.517Z,17.97
2022-12-17T19:12:09.498Z,20.33
2022-12-17T19:14:37.078Z,19.43
2022-12-17T19:17:05.877Z,21.00
2022-12-17T19:19:32.989Z,19.67
2022-12-17T19:22:00.507Z,18.90
2022-12-17T19:24:27.600Z,18.50
2022-12-17T19:26:54.892Z,18.67
2022-12-17T19:29:21.823Z,20.97
2022-12-17T19:31:49.615Z,19.97
2022-12-17T19:34:18.303Z,19.57
2022-12-17T19:36:47.575Z,18.60
2022-12-17T19:39:18.468Z,17.80
2022-12-17T19:41:45.582Z,18.63
2022-12-17T19:44:15.054Z,18.03
2022-12-17T19:46:43.571Z,18.33
2022-12-17T19:49:15.462Z,19.83
2022-12-17T19:51:44.358Z,19.43
2022-12-17T19:54:17.033Z,20.07
2022-12-17T19:56:45.522Z,18.77
2022-12-17T19:59:13.911Z,17.87
2022-12-17T20:01:46.464Z,18.83
2022-12-17T20:04:15.602Z,19.07
2022-12-17T20:06:43.917Z,18.97
2022-12-17T20:09:11.055Z,17.27
2022-12-17T20:11:38.009Z,19.40
2022-12-17T20:14:07.595Z,17.27
2022-12-17T20:16:41.214Z,17.30
2022-12-17T20:19:14.339Z,18.43
2022-12-17T20:21:41.599Z,18.20
2022-12-17T20:24:10.053Z,17.27
2022-12-17T20:26:38.839Z,19.37
2022-12-17T20:29:06.815Z,18.47
2022-12-17T20:31:34.613Z,18.90
2022-12-17T20:34:03.795Z,17.63
2022-12-17T20:36:30.763Z,17.63
2022-12-17T20:38:58.131Z,18.37
2022-12-17T20:41:27.649Z,17.93
2022-12-17T20:43:55.772Z,16.80
2022-12-17T20:46:24.589Z,17.30
2022-12-17T20:48:51.865Z,16.40
2022-12-17T20:51:24.413Z,17.80
2022-12-17T20:53:53.741Z,17.07
2022-12-17T20:56:24.048Z,17.73
2022-12-17T20:58:59.613Z,16.27
2022-12-17T21:01:28.321Z,16.20
2022-12-17T21:03:58.987Z,16.23
2022-12-17T21:06:35.288Z,17.17
2022-12-17T21:09:03.138Z,16.53
2022-12-17T21:11:31.879Z,15.70
2022-12-17T21:13:59.276Z,16.70
2022-12-17T21:16:29.798Z,15.83
2022-12-17T21:18:58.444Z,16.43
2022-12-17T21:21:31.704Z,16.63
2022-12-17T21:23:59.177Z,15.87
2022-12-17T21:26:29.300Z,16.70
2022-12-17T21:28:58.625Z,17.53
2022-12-17T21:31:34.347Z,16.63
2022-12-17T21:34:03.979Z,15.87
2022-12-17T21:36:32.552Z,15.70
2022-12-17T21:39:00.386Z,16.37
2022-12-17T21:41:31.604Z,17.53
2022-12-17T21:44:01.338Z,16.90
2022-12-17T21:46:29.348Z,16.10
2022-12-17T21:48:58.094Z,15.03
2022-12-17T21:51:25.834Z,15.43
2022-12-17T21:53:58.684Z,15.03
2022-12-17T21:56:25.676Z,15.10
2022-12-17T21:58:58.171Z,14.73
2022-12-17T22:01:28.002Z,13.63
2022-12-17T22:03:58.308Z,15.73
2022-12-17T22:06:34.438Z,14.93
2022-12-17T22:09:12.954Z,14.43
2022-12-17T22:11:48.120Z,14.87
2022-12-17T22:14:20.655Z,13.27
2022-12-17T22:16:49.765Z,14.30
2022-12-17T22:19:22.345Z,14.90
2022-12-17T22:21:51.134Z,13.27
2022-12-17T22:24:24.842Z,12.43
2022-12-17T22:26:56.142Z,13.60
2022-12-17T22:29:41.914Z,12.77
2022-12-17T22:32:31.066Z,14.23
2022-12-17T22:36:00.440Z,12.53
2022-12-17T22:40:52.367Z,13.13
2022-12-17T22:44:31.159Z,13.50
2022-12-17T22:44:40.583Z,13.63
2022-12-17T22:46:16.882Z,13.07
2022-12-17T22:48:43.833Z,11.97
2022-12-17T22:51:12.358Z,13.97
2022-12-17T22:53:41.015Z,12.20
2022-12-17T22:56:19.225Z,11.33
2022-12-17T22:58:55.921Z,10.60
2022-12-17T23:01:23.505Z,11.70
2022-12-17T23:04:00.426Z,10.77
2022-12-17T23:06:28.012Z,11.90
2022-12-17T23:08:55.720Z,11.73
2022-12-17T23:11:24.523Z,11.50
2022-12-17T23:13:51.855Z,10.60
2022-12-17T23:16:20.310Z,10.40
2022-12-17T23:18:48.865Z,12.60
2022-12-17T23:21:21.976Z,11.07
2022-12-17T23:23:48.834Z,10.47
2022-12-17T23:26:25.943Z,11.37
2022-12-17T23:28:58.474Z,11.83
2022-12-17T23:31:27.193Z,11.03
2022-12-17T23:33:54.371Z,12.07
2022-12-17T23:36:23.210Z,10.90
2022-12-17T23:38:51.437Z,10.90
2022-12-17T23:41:21.221Z,10.57
2022-12-17T23:43:49.101Z,10.60
2022-12-17T23:46:21.186Z,9.37
2022-12-17T23:48:48.472Z,11.37
2022-12-17T23:51:17.805Z,10.53
2022-12-17T23:53:45.017Z,10.63
2022-12-17T23:56:21.703Z,10.47
2022-12-17T23:58:51.914Z,9.07
